sensor_id;sensor_type;location;lat;lon;timestamp;temperature;humidity
2955;DHT22;1487;51.470;6.938;2023-05-20T00:01:50;11.80;99.90
2955;DHT22;1487;51.470;6.938;2023-05-20T00:04:17;11.70;99.90
2955;DHT22;1487;51.470;6.938;2023-05-20T00:06:44;11.70;99.90
2955;DHT22;1487;51.470;6.938;2023-05-20T00:09:11;11.70;99.90
2955;DHT22;1487;51.470;6.938;2023-05-20T00:11:38;11.60;99.90
2955;DHT22;1487;51.470;6.938;2023-05-20T00:14:06;11.70;99.90
2955;DHT22;1487;51.470;6.938;2023-05-20T00:16:33;11.70;99.90
2955;DHT22;1487;51.470;6.938;2023-05-20T00:19:01;11.60;99.90
2955;DHT22;1487;51.470;6.938;2023-05-20T00:21:28;11.60;99.90
2955;DHT22;1487;51.470;6.938;2023-05-20T00:23:57;11.60;99.90
2955;DHT22;1487;51.470;6.938;2023-05-20T00:26:24;11.60;99.90
2955;DHT22;1487;51.470;6.938;2023-05-20T00:28:51;11.60;99.90
2955;DHT22;1487;51.470;6.938;2023-05-20T00:31:19;11.60;99.90
2955;DHT22;1487;51.470;6.938;2023-05-20T00:33:46;11.60;99.90
2955;DHT22;1487;51.470;6.938;2023-05-20T00:36:13;11.60;99.90
2955;DHT22;1487;51.470;6.938;2023-05-20T00:38:40;11.60;99.90
2955;DHT22;1487;51.470;6.938;2023-05-20T00:41:06;11.70;99.90
2955;DHT22;1487;51.470;6.938;2023-05-20T00:43:33;11.60;99.90
2955;DHT22;1487;51.470;6.938;2023-05-20T00:46:00;11.60;99.90
2955;DHT22;1487;51.470;6.938;2023-05-20T00:48:35;11.70;99.90
2955;DHT22;1487;51.470;6.938;2023-05-20T00:51:03;11.70;99.90
2955;DHT22;1487;51.470;6.938;2023-05-20T00:53:33;11.60;99.90
2955;DHT22;1487;51.470;6.938;2023-05-20T00:56:01;11.70;99.90
2955;DHT22;1487;51.470;6.938;2023-05-20T00:58:28;11.70;99.90
2955;DHT22;1487;51.470;6.938;2023-05-20T01:00:55;11.70;99.90
2955;DHT22;1487;51.470;6.938;2023-05-20T01:03:22;11.60;99.90
2955;DHT22;1487;51.470;6.938;2023-05-20T01:05:50;11.60;99.90
2955;DHT22;1487;51.470;6.938;2023-05-20T01:08:17;11.50;99.90
2955;DHT22;1487;51.470;6.938;2023-05-20T01:10:48;11.40;99.90
2955;DHT22;1487;51.470;6.938;2023-05-20T01:13:19;11.40;99.90
2955;DHT22;1487;51.470;6.938;2023-05-20T01:15:47;11.30;99.90
2955;DHT22;1487;51.470;6.938;2023-05-20T01:18:15;11.30;99.90
2955;DHT22;1487;51.470;6.938;2023-05-20T01:20:46;11.30;99.90
2955;DHT22;1487;51.470;6.938;2023-05-20T01:23:16;11.20;99.90
2955;DHT22;1487;51.470;6.938;2023-05-20T01:25:43;11.20;99.90
2955;DHT22;1487;51.470;6.938;2023-05-20T01:28:10;11.30;99.90
2955;DHT22;1487;51.470;6.938;2023-05-20T01:30:46;11.20;99.90
2955;DHT22;1487;51.470;6.938;2023-05-20T01:33:14;11.20;99.90
2955;DHT22;1487;51.470;6.938;2023-05-20T01:35:42;11.20;99.90
2955;DHT22;1487;51.470;6.938;2023-05-20T01:38:09;11.10;99.90
2955;DHT22;1487;51.470;6.938;2023-05-20T01:40:38;11.10;99.90
2955;DHT22;1487;51.470;6.938;2023-05-20T01:43:06;11.10;99.90
2955;DHT22;1487;51.470;6.938;2023-05-20T01:45:34;11.10;99.90
2955;DHT22;1487;51.470;6.938;2023-05-20T01:48:01;11.10;99.90
2955;DHT22;1487;51.470;6.938;2023-05-20T01:50:28;11.10;99.90
2955;DHT22;1487;51.470;6.938;2023-05-20T01:52:55;11.10;99.90
2955;DHT22;1487;51.470;6.938;2023-05-20T01:55:22;11.10;99.90
2955;DHT22;1487;51.470;6.938;2023-05-20T01:57:50;11.20;99.90
2955;DHT22;1487;51.470;6.938;2023-05-20T02:00:17;11.10;99.90
2955;DHT22;1487;51.470;6.938;2023-05-20T02:02:44;11.10;99.90
2955;DHT22;1487;51.470;6.938;2023-05-20T02:05:11;11.10;99.90
2955;DHT22;1487;51.470;6.938;2023-05-20T02:07:38;11.10;99.90
2955;DHT22;1487;51.470;6.938;2023-05-20T02:10:05;11.10;99.90
2955;DHT22;1487;51.470;6.938;2023-05-20T02:12:32;11.10;99.90
2955;DHT22;1487;51.470;6.938;2023-05-20T02:15:01;11.10;99.90
2955;DHT22;1487;51.470;6.938;2023-05-20T02:17:28;11.10;99.90
2955;DHT22;1487;51.470;6.938;2023-05-20T02:19:55;11.20;99.90
2955;DHT22;1487;51.470;6.938;2023-05-20T02:22:21;11.10;99.90
2955;DHT22;1487;51.470;6.938;2023-05-20T02:24:48;11.10;99.90
2955;DHT22;1487;51.470;6.938;2023-05-20T02:27:15;11.10;99.90
2955;DHT22;1487;51.470;6.938;2023-05-20T02:29:42;11.10;99.90
2955;DHT22;1487;51.470;6.938;2023-05-20T02:32:10;11.10;99.90
2955;DHT22;1487;51.470;6.938;2023-05-20T02:34:37;11.10;99.90
2955;DHT22;1487;51.470;6.938;2023-05-20T02:37:04;11.10;99.90
2955;DHT22;1487;51.470;6.938;2023-05-20T02:39:31;11.10;99.90
2955;DHT22;1487;51.470;6.938;2023-05-20T02:41:58;11.10;99.90
2955;DHT22;1487;51.470;6.938;2023-05-20T02:44:25;11.00;99.90
2955;DHT22;1487;51.470;6.938;2023-05-20T02:46:52;11.00;99.90
2955;DHT22;1487;51.470;6.938;2023-05-20T02:49:20;11.00;99.90
2955;DHT22;1487;51.470;6.938;2023-05-20T02:51:46;11.10;99.90
2955;DHT22;1487;51.470;6.938;2023-05-20T02:54:13;11.00;99.90
2955;DHT22;1487;51.470;6.938;2023-05-20T02:56:40;11.00;99.90
2955;DHT22;1487;51.470;6.938;2023-05-20T02:59:07;11.00;99.90
2955;DHT22;1487;51.470;6.938;2023-05-20T03:01:34;11.10;99.90
2955;DHT22;1487;51.470;6.938;2023-05-20T03:04:01;11.10;99.90
2955;DHT22;1487;51.470;6.938;2023-05-20T03:06:29;11.00;99.90
2955;DHT22;1487;51.470;6.938;2023-05-20T03:08:57;11.00;99.90
2955;DHT22;1487;51.470;6.938;2023-05-20T03:11:24;11.00;99.90
2955;DHT22;1487;51.470;6.938;2023-05-20T03:13:51;11.00;99.90
2955;DHT22;1487;51.470;6.938;2023-05-20T03:16:18;11.00;99.90
2955;DHT22;1487;51.470;6.938;2023-05-20T03:18:44;11.00;99.90
2955;DHT22;1487;51.470;6.938;2023-05-20T03:21:11;11.00;99.90
2955;DHT22;1487;51.470;6.938;2023-05-20T03:23:39;11.00;99.90
2955;DHT22;1487;51.470;6.938;2023-05-20T03:26:06;11.00;99.90
2955;DHT22;1487;51.470;6.938;2023-05-20T03:28:34;11.00;99.90
2955;DHT22;1487;51.470;6.938;2023-05-20T03:31:01;11.00;99.90
2955;DHT22;1487;51.470;6.938;2023-05-20T03:33:29;11.00;99.90
2955;DHT22;1487;51.470;6.938;2023-05-20T03:35:55;10.90;99.90
2955;DHT22;1487;51.470;6.938;2023-05-20T03:38:22;10.90;99.90
2955;DHT22;1487;51.470;6.938;2023-05-20T03:40:50;10.90;99.90
2955;DHT22;1487;51.470;6.938;2023-05-20T03:43:17;10.80;99.90
2955;DHT22;1487;51.470;6.938;2023-05-20T03:45:44;10.90;99.90
2955;DHT22;1487;51.470;6.938;2023-05-20T03:48:11;10.90;99.90
2955;DHT22;1487;51.470;6.938;2023-05-20T03:50:38;11.00;99.90
2955;DHT22;1487;51.470;6.938;2023-05-20T03:53:04;11.00;99.90
2955;DHT22;1487;51.470;6.938;2023-05-20T03:55:31;11.00;99.90
2955;DHT22;1487;51.470;6.938;2023-05-20T03:58:00;11.00;99.90
2955;DHT22;1487;51.470;6.938;2023-05-20T04:00:27;10.90;99.90
2955;DHT22;1487;51.470;6.938;2023-05-20T04:02:55;11.00;99.90
2955;DHT22;1487;51.470;6.938;2023-05-20T04:05:22;11.00;99.90
2955;DHT22;1487;51.470;6.938;2023-05-20T04:07:49;11.10;99.90
2955;DHT22;1487;51.470;6.938;2023-05-20T04:10:18;11.10;99.90
2955;DHT22;1487;51.470;6.938;2023-05-20T04:12:45;11.10;99.90
2955;DHT22;1487;51.470;6.938;2023-05-20T04:15:13;11.10;99.90
2955;DHT22;1487;51.470;6.938;2023-05-20T04:17:40;11.10;99.90
2955;DHT22;1487;51.470;6.938;2023-05-20T04:20:08;11.20;99.90
2955;DHT22;1487;51.470;6.938;2023-05-20T04:22:35;11.30;99.90
2955;DHT22;1487;51.470;6.938;2023-05-20T04:25:04;11.30;99.90
2955;DHT22;1487;51.470;6.938;2023-05-20T04:27:31;11.30;99.90
2955;DHT22;1487;51.470;6.938;2023-05-20T04:29:59;11.30;99.90
2955;DHT22;1487;51.470;6.938;2023-05-20T04:32:28;11.40;99.90
2955;DHT22;1487;51.470;6.938;2023-05-20T04:34:55;11.40;99.90
2955;DHT22;1487;51.470;6.938;2023-05-20T04:37:22;11.40;99.90
2955;DHT22;1487;51.470;6.938;2023-05-20T04:39:49;11.50;99.90
2955;DHT22;1487;51.470;6.938;2023-05-20T04:42:17;11.40;99.90
2955;DHT22;1487;51.470;6.938;2023-05-20T04:44:44;11.50;99.90
2955;DHT22;1487;51.470;6.938;2023-05-20T04:47:12;11.50;99.90
2955;DHT22;1487;51.470;6.938;2023-05-20T04:49:40;11.50;99.90
2955;DHT22;1487;51.470;6.938;2023-05-20T04:52:07;11.60;99.90
2955;DHT22;1487;51.470;6.938;2023-05-20T04:54:35;11.60;99.90
2955;DHT22;1487;51.470;6.938;2023-05-20T04:57:02;11.70;99.90
2955;DHT22;1487;51.470;6.938;2023-05-20T04:59:28;11.70;99.90
2955;DHT22;1487;51.470;6.938;2023-05-20T05:01:55;11.80;99.90
2955;DHT22;1487;51.470;6.938;2023-05-20T05:04:22;11.80;99.90
2955;DHT22;1487;51.470;6.938;2023-05-20T05:06:50;11.80;99.90
2955;DHT22;1487;51.470;6.938;2023-05-20T05:09:17;11.90;99.90
2955;DHT22;1487;51.470;6.938;2023-05-20T05:11:44;12.00;99.90
2955;DHT22;1487;51.470;6.938;2023-05-20T05:14:10;12.00;99.90
2955;DHT22;1487;51.470;6.938;2023-05-20T05:16:37;12.10;99.90
2955;DHT22;1487;51.470;6.938;2023-05-20T05:19:04;12.20;99.90
2955;DHT22;1487;51.470;6.938;2023-05-20T05:21:31;12.30;99.90
2955;DHT22;1487;51.470;6.938;2023-05-20T05:23:59;12.40;99.90
2955;DHT22;1487;51.470;6.938;2023-05-20T05:26:26;12.50;99.90
2955;DHT22;1487;51.470;6.938;2023-05-20T05:28:53;12.50;99.90
2955;DHT22;1487;51.470;6.938;2023-05-20T05:31:20;12.60;99.90
2955;DHT22;1487;51.470;6.938;2023-05-20T05:33:47;12.70;99.90
2955;DHT22;1487;51.470;6.938;2023-05-20T05:36:14;12.90;99.90
2955;DHT22;1487;51.470;6.938;2023-05-20T05:38:41;13.00;99.90
2955;DHT22;1487;51.470;6.938;2023-05-20T05:41:10;13.00;99.90
2955;DHT22;1487;51.470;6.938;2023-05-20T05:43:36;13.20;99.90
2955;DHT22;1487;51.470;6.938;2023-05-20T05:46:03;13.30;99.90
2955;DHT22;1487;51.470;6.938;2023-05-20T05:48:31;13.40;99.90
2955;DHT22;1487;51.470;6.938;2023-05-20T05:50:57;13.50;99.90
2955;DHT22;1487;51.470;6.938;2023-05-20T05:53:24;13.60;99.90
2955;DHT22;1487;51.470;6.938;2023-05-20T05:55:51;13.80;99.90
2955;DHT22;1487;51.470;6.938;2023-05-20T05:58:19;13.90;99.90
2955;DHT22;1487;51.470;6.938;2023-05-20T06:00:46;14.00;99.90
2955;DHT22;1487;51.470;6.938;2023-05-20T06:03:16;14.20;99.90
2955;DHT22;1487;51.470;6.938;2023-05-20T06:05:44;14.50;99.90
2955;DHT22;1487;51.470;6.938;2023-05-20T06:08:11;15.40;99.90
2955;DHT22;1487;51.470;6.938;2023-05-20T06:10:38;16.80;99.90
2955;DHT22;1487;51.470;6.938;2023-05-20T06:13:05;18.00;99.90
2955;DHT22;1487;51.470;6.938;2023-05-20T06:15:33;19.00;99.90
2955;DHT22;1487;51.470;6.938;2023-05-20T06:18:00;19.80;99.90
2955;DHT22;1487;51.470;6.938;2023-05-20T06:20:27;20.70;97.60
2955;DHT22;1487;51.470;6.938;2023-05-20T06:22:54;21.30;94.20
2955;DHT22;1487;51.470;6.938;2023-05-20T06:25:21;21.60;91.70
2955;DHT22;1487;51.470;6.938;2023-05-20T06:27:48;22.10;85.50
2955;DHT22;1487;51.470;6.938;2023-05-20T06:30:15;22.50;86.40
2955;DHT22;1487;51.470;6.938;2023-05-20T06:32:44;22.40;84.70
2955;DHT22;1487;51.470;6.938;2023-05-20T06:35:11;22.90;84.60
2955;DHT22;1487;51.470;6.938;2023-05-20T06:37:38;22.50;81.40
2955;DHT22;1487;51.470;6.938;2023-05-20T06:40:06;22.30;81.20
2955;DHT22;1487;51.470;6.938;2023-05-20T06:42:33;21.80;81.40
2955;DHT22;1487;51.470;6.938;2023-05-20T06:45:00;21.40;83.60
2955;DHT22;1487;51.470;6.938;2023-05-20T06:47:27;20.90;85.10
2955;DHT22;1487;51.470;6.938;2023-05-20T06:49:55;20.50;89.20
2955;DHT22;1487;51.470;6.938;2023-05-20T06:52:22;20.70;88.20
2955;DHT22;1487;51.470;6.938;2023-05-20T06:54:49;20.70;86.60
2955;DHT22;1487;51.470;6.938;2023-05-20T06:57:15;20.50;88.30
2955;DHT22;1487;51.470;6.938;2023-05-20T06:59:42;20.10;89.70
2955;DHT22;1487;51.470;6.938;2023-05-20T07:02:10;19.90;91.50
2955;DHT22;1487;51.470;6.938;2023-05-20T07:04:36;20.00;91.60
2955;DHT22;1487;51.470;6.938;2023-05-20T07:07:05;19.90;94.20
2955;DHT22;1487;51.470;6.938;2023-05-20T07:09:31;19.70;93.10
2955;DHT22;1487;51.470;6.938;2023-05-20T07:11:58;19.00;93.20
2955;DHT22;1487;51.470;6.938;2023-05-20T07:14:25;18.60;97.30
2955;DHT22;1487;51.470;6.938;2023-05-20T07:16:52;18.30;99.90
2955;DHT22;1487;51.470;6.938;2023-05-20T07:19:19;17.90;99.90
2955;DHT22;1487;51.470;6.938;2023-05-20T07:21:45;17.90;99.90
2955;DHT22;1487;51.470;6.938;2023-05-20T07:24:15;18.10;99.90
2955;DHT22;1487;51.470;6.938;2023-05-20T07:26:42;18.30;99.90
2955;DHT22;1487;51.470;6.938;2023-05-20T07:29:09;17.90;99.90
2955;DHT22;1487;51.470;6.938;2023-05-20T07:31:36;17.90;99.90
2955;DHT22;1487;51.470;6.938;2023-05-20T07:34:03;17.70;99.90
2955;DHT22;1487;51.470;6.938;2023-05-20T07:36:30;17.90;99.90
2955;DHT22;1487;51.470;6.938;2023-05-20T07:38:57;17.70;99.90
2955;DHT22;1487;51.470;6.938;2023-05-20T07:41:25;17.70;99.90
2955;DHT22;1487;51.470;6.938;2023-05-20T07:43:52;17.70;99.90
2955;DHT22;1487;51.470;6.938;2023-05-20T07:46:19;17.50;99.90
2955;DHT22;1487;51.470;6.938;2023-05-20T07:48:45;17.50;99.90
2955;DHT22;1487;51.470;6.938;2023-05-20T07:51:12;17.40;99.90
2955;DHT22;1487;51.470;6.938;2023-05-20T07:53:39;17.60;99.90
2955;DHT22;1487;51.470;6.938;2023-05-20T07:56:06;17.30;99.90
2955;DHT22;1487;51.470;6.938;2023-05-20T07:58:34;17.40;99.90
2955;DHT22;1487;51.470;6.938;2023-05-20T08:01:01;17.40;99.90
2955;DHT22;1487;51.470;6.938;2023-05-20T08:03:28;17.70;99.90
2955;DHT22;1487;51.470;6.938;2023-05-20T08:05:55;17.80;99.90
2955;DHT22;1487;51.470;6.938;2023-05-20T08:08:21;18.00;99.90
2955;DHT22;1487;51.470;6.938;2023-05-20T08:10:50;18.20;99.90
2955;DHT22;1487;51.470;6.938;2023-05-20T08:13:17;18.10;99.90
2955;DHT22;1487;51.470;6.938;2023-05-20T08:15:45;18.10;99.90
2955;DHT22;1487;51.470;6.938;2023-05-20T08:18:13;18.30;99.90
2955;DHT22;1487;51.470;6.938;2023-05-20T08:20:39;18.40;99.90
2955;DHT22;1487;51.470;6.938;2023-05-20T08:23:07;18.60;99.90
2955;DHT22;1487;51.470;6.938;2023-05-20T08:25:34;18.70;99.90
2955;DHT22;1487;51.470;6.938;2023-05-20T08:28:01;18.80;99.90
2955;DHT22;1487;51.470;6.938;2023-05-20T08:30:30;18.80;99.90
2955;DHT22;1487;51.470;6.938;2023-05-20T08:32:59;19.10;99.90
2955;DHT22;1487;51.470;6.938;2023-05-20T08:35:26;19.10;99.90
2955;DHT22;1487;51.470;6.938;2023-05-20T08:37:53;19.00;99.90
2955;DHT22;1487;51.470;6.938;2023-05-20T08:40:20;18.90;99.90
2955;DHT22;1487;51.470;6.938;2023-05-20T08:42:48;19.00;99.90
2955;DHT22;1487;51.470;6.938;2023-05-20T08:45:17;19.40;99.90
2955;DHT22;1487;51.470;6.938;2023-05-20T08:47:44;19.80;99.90
2955;DHT22;1487;51.470;6.938;2023-05-20T08:50:13;20.10;99.90
2955;DHT22;1487;51.470;6.938;2023-05-20T08:52:42;21.20;99.90
2955;DHT22;1487;51.470;6.938;2023-05-20T08:55:13;22.20;99.80
2955;DHT22;1487;51.470;6.938;2023-05-20T08:57:41;22.20;91.90
2955;DHT22;1487;51.470;6.938;2023-05-20T09:00:11;21.90;91.40
2955;DHT22;1487;51.470;6.938;2023-05-20T09:02:40;21.30;92.80
2955;DHT22;1487;51.470;6.938;2023-05-20T09:05:09;21.10;96.10
2955;DHT22;1487;51.470;6.938;2023-05-20T09:07:38;21.10;94.40
2955;DHT22;1487;51.470;6.938;2023-05-20T09:10:07;20.90;95.30
2955;DHT22;1487;51.470;6.938;2023-05-20T09:12:35;20.70;93.50
2955;DHT22;1487;51.470;6.938;2023-05-20T09:15:01;20.50;97.30
2955;DHT22;1487;51.470;6.938;2023-05-20T09:17:28;20.60;95.60
2955;DHT22;1487;51.470;6.938;2023-05-20T09:19:55;20.60;96.20
2955;DHT22;1487;51.470;6.938;2023-05-20T09:22:22;20.60;96.50
2955;DHT22;1487;51.470;6.938;2023-05-20T09:24:51;20.70;97.00
2955;DHT22;1487;51.470;6.938;2023-05-20T09:27:18;20.70;96.20
2955;DHT22;1487;51.470;6.938;2023-05-20T09:29:46;20.30;96.70
2955;DHT22;1487;51.470;6.938;2023-05-20T09:32:14;20.10;97.90
2955;DHT22;1487;51.470;6.938;2023-05-20T09:34:41;19.90;99.90
2955;DHT22;1487;51.470;6.938;2023-05-20T09:37:10;20.00;99.90
2955;DHT22;1487;51.470;6.938;2023-05-20T09:39:43;20.10;99.90
2955;DHT22;1487;51.470;6.938;2023-05-20T09:42:17;20.30;99.90
2955;DHT22;1487;51.470;6.938;2023-05-20T09:44:47;20.50;99.90
2955;DHT22;1487;51.470;6.938;2023-05-20T09:47:16;20.20;99.90
2955;DHT22;1487;51.470;6.938;2023-05-20T09:49:45;20.00;99.90
2955;DHT22;1487;51.470;6.938;2023-05-20T09:52:13;19.90;99.90
2955;DHT22;1487;51.470;6.938;2023-05-20T09:54:42;20.00;99.90
2955;DHT22;1487;51.470;6.938;2023-05-20T09:57:10;19.90;99.90
2955;DHT22;1487;51.470;6.938;2023-05-20T09:59:39;19.80;99.90
2955;DHT22;1487;51.470;6.938;2023-05-20T10:02:07;19.90;99.90
2955;DHT22;1487;51.470;6.938;2023-05-20T10:04:36;19.80;99.90
2955;DHT22;1487;51.470;6.938;2023-05-20T10:10:12;19.70;99.90
2955;DHT22;1487;51.470;6.938;2023-05-20T10:12:47;19.60;99.90
2955;DHT22;1487;51.470;6.938;2023-05-20T10:15:23;19.60;99.90
2955;DHT22;1487;51.470;6.938;2023-05-20T10:17:59;19.60;99.90
2955;DHT22;1487;51.470;6.938;2023-05-20T10:20:28;19.60;99.90
2955;DHT22;1487;51.470;6.938;2023-05-20T10:22:56;19.50;99.90
2955;DHT22;1487;51.470;6.938;2023-05-20T10:25:26;19.50;99.90
2955;DHT22;1487;51.470;6.938;2023-05-20T10:28:04;19.40;99.90
2955;DHT22;1487;51.470;6.938;2023-05-20T10:30:33;19.60;99.90
2955;DHT22;1487;51.470;6.938;2023-05-20T10:33:03;19.60;99.90
2955;DHT22;1487;51.470;6.938;2023-05-20T10:35:31;19.50;99.90
2955;DHT22;1487;51.470;6.938;2023-05-20T10:38:08;19.70;99.90
2955;DHT22;1487;51.470;6.938;2023-05-20T10:40:35;19.50;99.90
2955;DHT22;1487;51.470;6.938;2023-05-20T10:43:09;19.40;99.90
2955;DHT22;1487;51.470;6.938;2023-05-20T10:45:48;19.30;99.90
2955;DHT22;1487;51.470;6.938;2023-05-20T10:48:27;19.30;99.90
2955;DHT22;1487;51.470;6.938;2023-05-20T10:50:54;19.20;99.90
2955;DHT22;1487;51.470;6.938;2023-05-20T10:53:23;19.10;99.90
2955;DHT22;1487;51.470;6.938;2023-05-20T10:55:52;19.20;99.90
2955;DHT22;1487;51.470;6.938;2023-05-20T10:58:20;19.20;99.90
2955;DHT22;1487;51.470;6.938;2023-05-20T11:00:52;19.10;99.90
2955;DHT22;1487;51.470;6.938;2023-05-20T11:03:21;19.00;99.90
2955;DHT22;1487;51.470;6.938;2023-05-20T11:05:48;19.10;99.90
2955;DHT22;1487;51.470;6.938;2023-05-20T11:08:16;19.40;99.90
2955;DHT22;1487;51.470;6.938;2023-05-20T11:10:42;19.40;99.90
2955;DHT22;1487;51.470;6.938;2023-05-20T11:13:11;19.50;99.90
2955;DHT22;1487;51.470;6.938;2023-05-20T11:15:39;19.60;99.90
2955;DHT22;1487;51.470;6.938;2023-05-20T11:18:10;19.50;99.90
2955;DHT22;1487;51.470;6.938;2023-05-20T11:20:39;19.60;99.90
2955;DHT22;1487;51.470;6.938;2023-05-20T11:23:10;19.60;99.90
2955;DHT22;1487;51.470;6.938;2023-05-20T11:25:37;19.50;99.90
2955;DHT22;1487;51.470;6.938;2023-05-20T11:28:08;19.70;99.90
2955;DHT22;1487;51.470;6.938;2023-05-20T11:30:35;19.60;99.90
2955;DHT22;1487;51.470;6.938;2023-05-20T11:33:03;19.60;99.90
2955;DHT22;1487;51.470;6.938;2023-05-20T11:35:31;19.80;99.90
2955;DHT22;1487;51.470;6.938;2023-05-20T11:38:01;20.00;99.90
2955;DHT22;1487;51.470;6.938;2023-05-20T11:40:30;20.00;99.90
2955;DHT22;1487;51.470;6.938;2023-05-20T11:42:58;20.20;99.90
2955;DHT22;1487;51.470;6.938;2023-05-20T11:45:25;20.30;99.90
2955;DHT22;1487;51.470;6.938;2023-05-20T11:48:00;20.50;99.90
2955;DHT22;1487;51.470;6.938;2023-05-20T11:50:27;20.80;99.90
2955;DHT22;1487;51.470;6.938;2023-05-20T11:52:57;21.20;99.90
2955;DHT22;1487;51.470;6.938;2023-05-20T11:55:24;21.50;99.90
2955;DHT22;1487;51.470;6.938;2023-05-20T11:57:52;21.70;99.90
2955;DHT22;1487;51.470;6.938;2023-05-20T12:00:18;21.90;99.90
2955;DHT22;1487;51.470;6.938;2023-05-20T12:02:46;22.10;99.90
2955;DHT22;1487;51.470;6.938;2023-05-20T12:05:13;22.60;99.90
2955;DHT22;1487;51.470;6.938;2023-05-20T12:07:40;23.60;97.40
2955;DHT22;1487;51.470;6.938;2023-05-20T12:10:09;24.20;93.50
2955;DHT22;1487;51.470;6.938;2023-05-20T12:12:38;24.10;91.40
2955;DHT22;1487;51.470;6.938;2023-05-20T12:15:05;24.20;90.90
2955;DHT22;1487;51.470;6.938;2023-05-20T12:17:43;24.10;90.40
2955;DHT22;1487;51.470;6.938;2023-05-20T12:20:12;23.90;90.30
2955;DHT22;1487;51.470;6.938;2023-05-20T12:22:39;24.20;90.00
2955;DHT22;1487;51.470;6.938;2023-05-20T12:25:07;25.00;89.30
2955;DHT22;1487;51.470;6.938;2023-05-20T12:27:35;25.30;87.80
2955;DHT22;1487;51.470;6.938;2023-05-20T12:30:02;25.80;82.70
2955;DHT22;1487;51.470;6.938;2023-05-20T12:32:30;25.80;77.70
2955;DHT22;1487;51.470;6.938;2023-05-20T12:34:56;26.00;78.80
2955;DHT22;1487;51.470;6.938;2023-05-20T12:37:23;26.40;76.70
2955;DHT22;1487;51.470;6.938;2023-05-20T12:39:50;26.30;77.10
2955;DHT22;1487;51.470;6.938;2023-05-20T12:42:17;25.90;77.70
2955;DHT22;1487;51.470;6.938;2023-05-20T12:44:45;25.90;78.50
2955;DHT22;1487;51.470;6.938;2023-05-20T12:47:12;25.80;77.60
2955;DHT22;1487;51.470;6.938;2023-05-20T12:49:39;25.40;76.60
2955;DHT22;1487;51.470;6.938;2023-05-20T12:52:06;25.00;75.80
2955;DHT22;1487;51.470;6.938;2023-05-20T12:54:33;24.20;78.30
2955;DHT22;1487;51.470;6.938;2023-05-20T12:57:00;24.00;79.00
2955;DHT22;1487;51.470;6.938;2023-05-20T12:59:27;24.00;78.90
2955;DHT22;1487;51.470;6.938;2023-05-20T13:01:55;23.30;78.50
2955;DHT22;1487;51.470;6.938;2023-05-20T13:04:22;22.90;80.80
2955;DHT22;1487;51.470;6.938;2023-05-20T13:06:49;22.70;81.90
2955;DHT22;1487;51.470;6.938;2023-05-20T13:09:16;22.30;82.30
2955;DHT22;1487;51.470;6.938;2023-05-20T13:11:43;22.10;84.80
2955;DHT22;1487;51.470;6.938;2023-05-20T13:14:10;22.10;86.90
2955;DHT22;1487;51.470;6.938;2023-05-20T13:16:37;22.40;87.60
2955;DHT22;1487;51.470;6.938;2023-05-20T13:19:05;22.30;86.10
2955;DHT22;1487;51.470;6.938;2023-05-20T13:21:32;22.40;88.80
2955;DHT22;1487;51.470;6.938;2023-05-20T13:23:59;22.40;91.30
2955;DHT22;1487;51.470;6.938;2023-05-20T13:26:26;22.70;88.50
2955;DHT22;1487;51.470;6.938;2023-05-20T13:28:54;22.80;85.40
2955;DHT22;1487;51.470;6.938;2023-05-20T13:31:21;22.70;84.80
2955;DHT22;1487;51.470;6.938;2023-05-20T13:33:48;22.70;84.90
2955;DHT22;1487;51.470;6.938;2023-05-20T13:36:16;22.60;86.20
2955;DHT22;1487;51.470;6.938;2023-05-20T13:38:43;22.50;84.70
2955;DHT22;1487;51.470;6.938;2023-05-20T13:41:10;22.30;85.00
2955;DHT22;1487;51.470;6.938;2023-05-20T13:43:36;22.00;85.80
2955;DHT22;1487;51.470;6.938;2023-05-20T13:46:06;22.00;90.10
2955;DHT22;1487;51.470;6.938;2023-05-20T13:48:33;21.90;88.50
2955;DHT22;1487;51.470;6.938;2023-05-20T13:51:00;21.80;90.20
2955;DHT22;1487;51.470;6.938;2023-05-20T13:53:28;22.00;90.80
2955;DHT22;1487;51.470;6.938;2023-05-20T13:55:55;21.90;91.20
2955;DHT22;1487;51.470;6.938;2023-05-20T13:58:22;21.90;90.00
2955;DHT22;1487;51.470;6.938;2023-05-20T14:00:49;21.90;91.00
2955;DHT22;1487;51.470;6.938;2023-05-20T14:03:16;21.90;91.10
2955;DHT22;1487;51.470;6.938;2023-05-20T14:05:43;21.90;90.10
2955;DHT22;1487;51.470;6.938;2023-05-20T14:08:11;21.80;90.20
2955;DHT22;1487;51.470;6.938;2023-05-20T14:10:39;21.70;91.90
2955;DHT22;1487;51.470;6.938;2023-05-20T14:13:06;21.60;93.10
2955;DHT22;1487;51.470;6.938;2023-05-20T14:15:35;21.80;92.60
2955;DHT22;1487;51.470;6.938;2023-05-20T14:18:01;21.90;91.00
2955;DHT22;1487;51.470;6.938;2023-05-20T14:20:28;22.20;90.60
2955;DHT22;1487;51.470;6.938;2023-05-20T14:22:55;22.50;92.00
2955;DHT22;1487;51.470;6.938;2023-05-20T14:25:22;22.70;90.30
2955;DHT22;1487;51.470;6.938;2023-05-20T14:27:50;22.90;88.20
2955;DHT22;1487;51.470;6.938;2023-05-20T14:30:17;23.20;88.80
2955;DHT22;1487;51.470;6.938;2023-05-20T14:32:44;23.10;86.80
2955;DHT22;1487;51.470;6.938;2023-05-20T14:35:11;23.10;87.70
2955;DHT22;1487;51.470;6.938;2023-05-20T14:37:37;23.00;88.50
2955;DHT22;1487;51.470;6.938;2023-05-20T14:40:05;23.20;85.40
2955;DHT22;1487;51.470;6.938;2023-05-20T14:42:33;23.20;85.30
2955;DHT22;1487;51.470;6.938;2023-05-20T14:45:01;23.20;84.50
2955;DHT22;1487;51.470;6.938;2023-05-20T14:47:28;22.80;84.00
2955;DHT22;1487;51.470;6.938;2023-05-20T14:49:55;22.70;90.00
2955;DHT22;1487;51.470;6.938;2023-05-20T14:52:22;22.80;90.00
2955;DHT22;1487;51.470;6.938;2023-05-20T14:54:49;22.90;88.10
2955;DHT22;1487;51.470;6.938;2023-05-20T14:57:16;22.70;87.90
2955;DHT22;1487;51.470;6.938;2023-05-20T14:59:43;22.40;86.90
2955;DHT22;1487;51.470;6.938;2023-05-20T15:02:12;22.60;88.30
2955;DHT22;1487;51.470;6.938;2023-05-20T15:04:38;23.20;90.10
2955;DHT22;1487;51.470;6.938;2023-05-20T15:07:07;23.70;87.40
2955;DHT22;1487;51.470;6.938;2023-05-20T15:09:33;23.90;85.70
2955;DHT22;1487;51.470;6.938;2023-05-20T15:12:00;24.00;82.40
2955;DHT22;1487;51.470;6.938;2023-05-20T15:14:27;23.20;83.10
2955;DHT22;1487;51.470;6.938;2023-05-20T15:16:54;22.90;84.60
2955;DHT22;1487;51.470;6.938;2023-05-20T15:19:22;22.90;85.70
2955;DHT22;1487;51.470;6.938;2023-05-20T15:21:49;23.10;85.80
2955;DHT22;1487;51.470;6.938;2023-05-20T15:24:17;23.40;84.50
2955;DHT22;1487;51.470;6.938;2023-05-20T15:26:43;23.30;83.50
2955;DHT22;1487;51.470;6.938;2023-05-20T15:29:11;23.00;83.20
2955;DHT22;1487;51.470;6.938;2023-05-20T15:31:38;22.40;83.50
2955;DHT22;1487;51.470;6.938;2023-05-20T15:34:05;21.90;85.60
2955;DHT22;1487;51.470;6.938;2023-05-20T15:36:33;21.40;89.00
2955;DHT22;1487;51.470;6.938;2023-05-20T15:39:00;21.10;90.10
2955;DHT22;1487;51.470;6.938;2023-05-20T15:41:26;20.70;90.80
2955;DHT22;1487;51.470;6.938;2023-05-20T15:43:53;20.60;94.00
2955;DHT22;1487;51.470;6.938;2023-05-20T15:46:20;20.60;96.80
2955;DHT22;1487;51.470;6.938;2023-05-20T15:48:48;20.60;98.40
2955;DHT22;1487;51.470;6.938;2023-05-20T15:51:15;20.60;97.80
2955;DHT22;1487;51.470;6.938;2023-05-20T15:53:44;20.50;96.40
2955;DHT22;1487;51.470;6.938;2023-05-20T15:56:11;20.60;99.90
2955;DHT22;1487;51.470;6.938;2023-05-20T15:58:38;20.50;99.20
2955;DHT22;1487;51.470;6.938;2023-05-20T16:01:05;20.50;99.90
2955;DHT22;1487;51.470;6.938;2023-05-20T16:03:32;20.50;99.90
2955;DHT22;1487;51.470;6.938;2023-05-20T16:05:59;20.50;98.90
2955;DHT22;1487;51.470;6.938;2023-05-20T16:08:26;20.40;99.90